This is the latest recevied weather packets stored in our database for station/object F5MAP-5. If no packets are shown the sender has not sent any weather packets the latest 10 day(s).
| Time | Temp. | Humidity | Pressure | Rain* | Wind** | Luminosity | Snow |
|---|---|---|---|---|---|---|---|
| 1777742534 | 26.11° C | 43% | 1015.2 hPa | 0 mm | - | 33 W/m² | - |
| 1777741934 | 26.11° C | 42% | 1015.2 hPa | 0 mm | - | 39 W/m² | - |
| 1777741334 | 26.11° C | 40% | 1015.3 hPa | 0 mm | - | 49 W/m² | - |
| 1777740733 | 26.67° C | 40% | 1015.3 hPa | 0 mm | - | 58 W/m² | - |
| 1777740133 | 26.67° C | 39% | 1015.4 hPa | 0 mm | - | 69 W/m² | - |
| 1777739533 | 26.67° C | 39% | 1015.5 hPa | 0 mm | - | 84 W/m² | - |
| 1777738933 | 26.67° C | 39% | 1015.6 hPa | 0 mm | - | 95 W/m² | - |
| 1777738333 | 26.67° C | 37% | 1015.7 hPa | 0 mm | - | 93 W/m² | - |
| 1777737733 | 26.67° C | 37% | 1015.9 hPa | 0 mm | - | 97 W/m² | - |
| 1777737133 | 26.67° C | 36% | 1016 hPa | 0 mm | - | 107 W/m² | - |
| 1777736533 | 27.22° C | 34% | 1016.1 hPa | 0 mm | - | 113 W/m² | - |
| 1777735932 | 27.22° C | 35% | 1016.2 hPa | 0 mm | - | 91 W/m² | - |
| 1777735333 | 27.22° C | 34% | 1016.3 hPa | 0 mm | - | 69 W/m² | - |
| 1777734733 | 27.22° C | 34% | 1016.3 hPa | 0 mm | - | 63 W/m² | - |
| 1777734133 | 27.78° C | 34% | 1016.5 hPa | 0 mm | - | 53 W/m² | - |
| 1777733533 | 27.78° C | 34% | 1016.6 hPa | 0 mm | - | 54 W/m² | - |
| 1777732934 | 27.78° C | 34% | 1016.8 hPa | 0 mm | - | 54 W/m² | - |
| 1777732333 | 27.78° C | 36% | 1016.9 hPa | 0 mm | - | 53 W/m² | - |
| 1777731733 | 27.78° C | 37% | 1017 hPa | 0 mm | - | 54 W/m² | - |
| 1777731133 | 28.33° C | 36% | 1017.1 hPa | 0 mm | - | 53 W/m² | - |
| 1777730533 | 28.33° C | 35% | 1017.3 hPa | 0 mm | - | 56 W/m² | - |
| 1777729934 | 28.33° C | 37% | 1017.5 hPa | 0 mm | - | 62 W/m² | - |
| 1777729334 | 28.89° C | 36% | 1017.7 hPa | 0 mm | - | 69 W/m² | - |
| 1777728734 | 29.44° C | 32% | 1017.8 hPa | 0 mm | - | 642 W/m² | - |
| 1777728134 | 29.44° C | 34% | 1018 hPa | 0 mm | - | 724 W/m² | - |
* Rain latest hour (hover to see other rain measurements)
** Current wind speed in m/s (hover to see current wind gust speed)